Time;durP1;ratioP1;P1;durP2;ratioP2;P2;SDS_P1;SDS_P2;PMS_P1;PMS_P2;Temp;Humidity;BMP_temperature;BMP_pressure;BME280_temperature;BME280_humidity;BME280_pressure;Samples;Min_cycle;Max_cycle;Signal;HPM_P1;HPM_P2
2023/08/29 00:02:03;;;;;;;2.03;0.90;;;14.40;99.90;;;;;;5074827;28;20440;-83
2023/08/29 00:04:30;;;;;;;1.90;0.80;;;14.40;99.90;;;;;;5065135;28;20446;-84
2023/08/29 00:06:58;;;;;;;2.13;0.83;;;14.40;99.90;;;;;;5054151;28;20469;-84
2023/08/29 00:09:25;;;;;;;3.33;0.77;;;14.30;99.90;;;;;;5054332;28;20488;-83
2023/08/29 00:11:53;;;;;;;3.07;1.03;;;14.30;99.90;;;;;;5054560;28;20835;-84
2023/08/29 00:14:23;;;;;;;2.10;1.27;;;14.30;99.90;;;;;;5054300;28;20445;-84
2023/08/29 00:16:50;;;;;;;2.40;0.90;;;14.30;99.90;;;;;;5054340;28;20441;-83
2023/08/29 00:19:18;;;;;;;2.07;0.87;;;14.30;99.90;;;;;;5053795;28;20962;-84
2023/08/29 00:21:45;;;;;;;1.90;0.87;;;14.30;99.90;;;;;;5054323;28;20437;-84
2023/08/29 00:24:13;;;;;;;3.50;0.80;;;14.20;99.90;;;;;;5062697;28;20444;-83
2023/08/29 00:26:41;;;;;;;2.00;0.70;;;14.30;99.90;;;;;;5073858;28;20464;-84
2023/08/29 00:29:08;;;;;;;1.90;0.80;;;14.20;99.90;;;;;;5074209;28;20825;-84
2023/08/29 00:31:35;;;;;;;1.83;0.80;;;14.20;99.90;;;;;;5074216;28;20501;-84
2023/08/29 00:34:02;;;;;;;1.87;0.70;;;14.20;99.90;;;;;;5066084;28;20811;-84
2023/08/29 00:36:29;;;;;;;1.80;0.60;;;14.20;99.90;;;;;;5054179;28;20441;-84
2023/08/29 00:38:56;;;;;;;2.30;1.00;;;14.20;99.90;;;;;;5053711;28;20873;-84
2023/08/29 00:41:25;;;;;;;1.90;0.83;;;14.20;99.90;;;;;;5054196;28;20828;-84
2023/08/29 00:43:52;;;;;;;1.90;0.70;;;14.20;99.90;;;;;;5053460;28;20444;-84
2023/08/29 00:46:23;;;;;;;2.27;0.90;;;14.20;99.90;;;;;;5053847;28;20482;-84
2023/08/29 00:48:50;;;;;;;1.70;0.60;;;14.20;99.90;;;;;;5053782;28;20778;-83
2023/08/29 00:51:18;;;;;;;2.00;0.87;;;14.20;99.90;;;;;;5053694;28;20915;-83
2023/08/29 00:53:50;;;;;;;2.13;1.00;;;14.10;99.90;;;;;;5053689;28;20440;-81
2023/08/29 00:56:18;;;;;;;1.90;0.80;;;14.10;99.90;;;;;;5053970;28;20479;-84
2023/08/29 00:58:46;;;;;;;1.80;0.80;;;14.10;99.90;;;;;;5053657;28;20473;-83
2023/08/29 01:01:15;;;;;;;3.63;0.90;;;14.10;99.90;;;;;;5053395;28;20487;-83
2023/08/29 01:03:44;;;;;;;1.80;0.70;;;14.10;99.90;;;;;;5052817;28;20445;-83
2023/08/29 01:06:17;;;;;;;1.70;0.60;;;14.00;99.90;;;;;;5052609;28;20498;-83
2023/08/29 01:08:45;;;;;;;1.83;0.80;;;14.00;99.90;;;;;;5053374;28;20950;-83
2023/08/29 01:11:17;;;;;;;1.90;0.77;;;14.00;99.90;;;;;;5053274;28;20425;-83
2023/08/29 01:13:55;;;;;;;1.73;0.70;;;14.00;99.90;;;;;;5053096;28;20429;-83
2023/08/29 01:16:28;;;;;;;2.10;0.77;;;13.90;99.90;;;;;;5053615;28;20428;-83
2023/08/29 01:18:59;;;;;;;4.00;1.10;;;13.90;99.90;;;;;;5054629;28;20690;-83
2023/08/29 01:21:36;;;;;;;2.20;1.20;;;13.90;99.90;;;;;;5073178;28;20431;-83
2023/08/29 01:24:08;;;;;;;2.07;0.80;;;13.90;99.90;;;;;;5073568;28;20819;-82
2023/08/29 01:26:38;;;;;;;2.10;0.90;;;13.80;99.90;;;;;;5073084;28;20466;-83
2023/08/29 01:29:07;;;;;;;2.37;1.37;;;13.80;99.90;;;;;;5072854;28;20432;-84
2023/08/29 01:31:35;;;;;;;2.23;1.30;;;13.80;99.90;;;;;;5073290;28;20432;-83
2023/08/29 01:34:02;;;;;;;2.47;1.50;;;13.80;99.90;;;;;;5072500;28;20930;-84
2023/08/29 01:36:39;;;;;;;2.30;1.30;;;13.80;99.90;;;;;;5073479;28;20840;-84
2023/08/29 01:39:06;;;;;;;2.70;1.60;;;13.80;99.90;;;;;;5072694;28;20507;-84
2023/08/29 01:41:33;;;;;;;3.20;1.93;;;13.80;99.90;;;;;;5073225;28;20901;-83
2023/08/29 01:44:03;;;;;;;2.67;1.67;;;13.70;99.90;;;;;;5073006;28;20938;-84
2023/08/29 01:46:30;;;;;;;2.90;1.40;;;13.70;99.90;;;;;;5073197;28;20420;-83
2023/08/29 01:48:58;;;;;;;3.20;1.47;;;13.70;99.90;;;;;;5071961;28;20460;-83
2023/08/29 01:51:26;;;;;;;2.77;1.70;;;13.70;99.90;;;;;;5053206;28;20837;-83
2023/08/29 01:53:53;;;;;;;3.43;2.50;;;13.70;99.90;;;;;;5052979;28;20945;-83
2023/08/29 01:56:21;;;;;;;4.00;2.13;;;13.70;99.90;;;;;;5052784;28;20918;-83
2023/08/29 01:58:49;;;;;;;2.60;1.80;;;13.70;99.90;;;;;;5052357;28;21048;-80
2023/08/29 02:01:18;;;;;;;2.73;1.77;;;13.60;99.90;;;;;;5037639;28;20495;-83
2023/08/29 02:03:45;;;;;;;3.03;2.10;;;13.60;99.90;;;;;;5032694;28;20449;-83
2023/08/29 02:06:15;;;;;;;9.20;4.13;;;13.60;99.90;;;;;;5033123;28;20463;-82
2023/08/29 02:08:42;;;;;;;4.33;2.03;;;13.60;99.90;;;;;;5033112;28;20496;-83
2023/08/29 02:11:09;;;;;;;3.10;2.27;;;13.60;99.90;;;;;;5052422;28;20451;-84
2023/08/29 02:13:36;;;;;;;3.10;2.37;;;13.50;99.90;;;;;;5053005;28;20510;-84
2023/08/29 02:16:04;;;;;;;3.60;2.40;;;13.50;99.90;;;;;;5052575;28;20929;-84
2023/08/29 02:18:32;;;;;;;4.13;2.70;;;13.50;99.90;;;;;;5055353;28;20919;-83
2023/08/29 02:20:59;;;;;;;3.17;1.90;;;13.50;99.90;;;;;;5056497;28;20451;-84
2023/08/29 02:23:26;;;;;;;6.67;3.17;;;13.50;99.90;;;;;;5056683;28;20441;-83
2023/08/29 02:26:02;;;;;;;2.97;2.33;;;13.40;99.90;;;;;;5056378;28;20499;-85
2023/08/29 02:28:29;;;;;;;3.43;2.13;;;13.40;99.90;;;;;;5056246;28;20463;-84
2023/08/29 02:30:56;;;;;;;3.17;2.00;;;13.40;99.90;;;;;;5060814;28;20440;-84
2023/08/29 02:33:23;;;;;;;2.90;1.60;;;13.40;99.90;;;;;;5055698;28;20506;-84
2023/08/29 02:35:51;;;;;;;2.90;1.83;;;13.40;99.90;;;;;;5056318;28;20433;-84
2023/08/29 02:38:18;;;;;;;3.10;2.23;;;13.40;99.90;;;;;;5056372;28;20528;-84
2023/08/29 02:40:45;;;;;;;4.20;2.30;;;13.40;99.90;;;;;;5056171;28;20448;-84
2023/08/29 02:43:12;;;;;;;2.97;1.87;;;13.40;99.90;;;;;;5055948;28;20494;-84
2023/08/29 02:45:44;;;;;;;4.40;2.57;;;13.40;99.90;;;;;;5056336;28;20434;-84
2023/08/29 02:48:12;;;;;;;2.80;1.90;;;13.40;99.90;;;;;;5055844;28;20954;-85
2023/08/29 02:50:39;;;;;;;3.40;1.50;;;13.40;99.90;;;;;;5055811;28;20449;-84
2023/08/29 02:53:08;;;;;;;2.80;1.70;;;13.40;99.90;;;;;;5055620;28;20433;-84
2023/08/29 02:55:35;;;;;;;3.60;1.87;;;13.30;99.90;;;;;;5074704;28;20436;-84
2023/08/29 02:58:02;;;;;;;2.90;1.80;;;13.30;99.90;;;;;;5075663;28;20464;-84
2023/08/29 03:00:29;;;;;;;2.97;2.00;;;13.30;99.90;;;;;;5075769;28;20425;-85
2023/08/29 03:02:57;;;;;;;3.27;2.27;;;13.30;99.90;;;;;;5075877;28;20440;-85
2023/08/29 03:05:24;;;;;;;3.43;2.07;;;13.30;99.90;;;;;;5075084;28;20555;-85
2023/08/29 03:07:51;;;;;;;3.50;2.47;;;13.30;99.90;;;;;;5075521;28;20467;-83
2023/08/29 03:10:19;;;;;;;4.30;2.43;;;13.30;99.90;;;;;;5075742;28;20443;-85
2023/08/29 03:12:46;;;;;;;3.73;2.87;;;13.30;99.90;;;;;;5075859;28;20432;-85
2023/08/29 03:15:13;;;;;;;3.80;2.90;;;13.30;99.90;;;;;;5074991;28;20442;-85
2023/08/29 03:17:44;;;;;;;3.80;2.63;;;13.30;99.90;;;;;;5075663;28;20532;-85
2023/08/29 03:20:12;;;;;;;4.30;2.90;;;13.30;99.90;;;;;;5075266;28;20429;-85
2023/08/29 03:22:39;;;;;;;5.00;3.80;;;13.30;99.90;;;;;;5075221;28;20429;-84
2023/08/29 03:25:07;;;;;;;4.33;2.90;;;13.40;99.90;;;;;;5074788;28;20922;-84
2023/08/29 03:27:41;;;;;;;3.80;2.80;;;13.30;99.90;;;;;;5075103;28;20476;-86
2023/08/29 03:30:09;;;;;;;3.70;2.93;;;13.30;99.90;;;;;;5074533;28;20443;-86
2023/08/29 03:32:38;;;;;;;4.33;2.93;;;13.30;99.90;;;;;;5067963;28;20796;-86
2023/08/29 03:35:06;;;;;;;8.17;2.97;;;13.30;99.90;;;;;;5055287;28;20437;-86
2023/08/29 03:37:33;;;;;;;4.07;3.17;;;13.30;99.90;;;;;;5055303;28;20486;-84
2023/08/29 03:40:00;;;;;;;4.53;2.93;;;13.30;99.90;;;;;;5055335;28;20461;-84
2023/08/29 03:42:27;;;;;;;3.80;3.20;;;13.30;99.90;;;;;;5054903;28;20787;-84
2023/08/29 03:44:55;;;;;;;3.93;3.17;;;13.30;99.90;;;;;;5054841;28;20447;-84
2023/08/29 03:47:23;;;;;;;4.60;3.40;;;13.30;99.90;;;;;;5054766;28;20444;-84
2023/08/29 03:49:50;;;;;;;5.30;3.90;;;13.30;99.90;;;;;;5054815;28;20463;-84
2023/08/29 03:52:22;;;;;;;4.20;3.43;;;13.30;99.90;;;;;;5054590;28;20913;-84
2023/08/29 03:54:50;;;;;;;5.83;3.57;;;13.30;99.90;;;;;;5055079;28;20420;-84
2023/08/29 03:57:16;;;;;;;4.47;3.27;;;13.30;99.90;;;;;;5054705;28;20479;-83
2023/08/29 03:59:44;;;;;;;4.73;3.90;;;13.30;99.90;;;;;;5054991;28;20449;-84
2023/08/29 04:02:12;;;;;;;5.60;3.87;;;13.30;99.90;;;;;;5054314;28;20444;-83
2023/08/29 04:04:39;;;;;;;4.73;3.50;;;13.30;99.90;;;;;;5054652;28;20796;-83
2023/08/29 04:07:10;;;;;;;4.53;3.67;;;13.30;99.90;;;;;;5054314;28;20931;-83
2023/08/29 04:09:37;;;;;;;4.10;3.30;;;13.30;99.90;;;;;;5054339;28;20426;-84
2023/08/29 04:12:07;;;;;;;4.00;3.30;;;13.20;99.90;;;;;;5055648;28;20441;-84
2023/08/29 04:14:35;;;;;;;6.80;3.50;;;13.20;99.90;;;;;;5074144;28;20441;-83
2023/08/29 04:17:02;;;;;;;4.00;3.37;;;13.20;99.90;;;;;;5074232;28;20501;-84
2023/08/29 04:19:30;;;;;;;4.00;2.97;;;13.20;99.90;;;;;;5074061;28;20441;-84
2023/08/29 04:21:57;;;;;;;3.77;2.90;;;13.20;99.90;;;;;;5071559;28;20439;-84
2023/08/29 04:24:24;;;;;;;4.30;3.77;;;13.20;99.90;;;;;;5054373;28;20440;-84
2023/08/29 04:26:52;;;;;;;3.97;3.00;;;13.20;99.90;;;;;;5054193;28;20498;-84
2023/08/29 04:29:19;;;;;;;5.43;3.73;;;13.20;99.90;;;;;;5054206;28;20565;-84
2023/08/29 04:31:52;;;;;;;4.43;3.80;;;13.10;99.90;;;;;;5053945;28;20935;-83
2023/08/29 04:34:23;;;;;;;5.37;3.30;;;13.10;99.90;;;;;;5074199;28;20433;-84
2023/08/29 04:36:51;;;;;;;5.47;4.10;;;13.10;99.90;;;;;;5074138;28;20429;-83
2023/08/29 04:39:21;;;;;;;4.30;3.63;;;13.10;99.90;;;;;;5073776;28;20964;-84
2023/08/29 04:41:48;;;;;;;4.70;3.13;;;13.10;99.90;;;;;;5070265;28;20557;-84
2023/08/29 04:44:15;;;;;;;4.40;2.67;;;13.10;99.90;;;;;;5053929;28;21022;-84
2023/08/29 04:46:42;;;;;;;5.30;3.37;;;13.10;99.90;;;;;;5053992;28;20433;-84
2023/08/29 04:49:09;;;;;;;3.97;3.07;;;13.10;99.90;;;;;;5053451;28;20477;-84
2023/08/29 04:51:36;;;;;;;3.43;2.57;;;13.10;99.90;;;;;;5054298;28;20448;-84
2023/08/29 04:54:10;;;;;;;6.63;3.17;;;13.10;99.90;;;;;;5058925;28;20445;-84
2023/08/29 04:56:38;;;;;;;4.17;3.40;;;13.10;99.90;;;;;;5053554;28;20433;-84
2023/08/29 04:59:05;;;;;;;4.77;2.80;;;13.10;99.90;;;;;;5055845;28;20464;-83
2023/08/29 05:01:32;;;;;;;4.90;3.33;;;13.10;99.90;;;;;;5063096;28;20784;-83
2023/08/29 05:04:00;;;;;;;3.80;3.13;;;13.10;99.90;;;;;;5057981;28;20450;-83
2023/08/29 05:06:27;;;;;;;4.20;3.27;;;13.20;99.90;;;;;;5067877;28;20440;-83
2023/08/29 05:08:55;;;;;;;4.17;2.93;;;13.10;99.90;;;;;;5054803;28;20473;-82
2023/08/29 05:11:24;;;;;;;3.70;2.80;;;13.10;99.90;;;;;;5050663;28;20483;-84
2023/08/29 05:13:51;;;;;;;3.40;2.67;;;13.10;99.90;;;;;;5052439;28;20443;-85
2023/08/29 05:16:23;;;;;;;4.10;2.80;;;13.10;99.90;;;;;;5052204;28;20496;-86
2023/08/29 05:18:50;;;;;;;4.30;2.70;;;13.10;99.90;;;;;;5052654;28;20846;-85
2023/08/29 05:21:17;;;;;;;6.00;2.60;;;13.10;99.90;;;;;;5052758;28;20475;-86
2023/08/29 05:23:44;;;;;;;3.13;2.50;;;13.00;99.90;;;;;;5052545;28;20486;-86
2023/08/29 05:26:11;;;;;;;3.17;2.33;;;13.00;99.90;;;;;;5052540;28;20522;-85
2023/08/29 05:28:39;;;;;;;3.03;2.40;;;13.00;99.90;;;;;;5052365;28;20474;-86
2023/08/29 05:31:06;;;;;;;3.63;2.03;;;13.00;99.90;;;;;;5052313;28;20927;-86
2023/08/29 05:33:33;;;;;;;3.67;2.57;;;13.00;99.90;;;;;;5052485;28;20797;-86
2023/08/29 05:36:01;;;;;;;2.90;2.07;;;13.00;99.90;;;;;;5052422;28;20437;-85
2023/08/29 05:38:28;;;;;;;4.00;3.00;;;13.00;99.90;;;;;;5052062;28;20972;-83
2023/08/29 05:40:56;;;;;;;2.80;1.73;;;13.00;99.90;;;;;;5052489;28;20448;-86
2023/08/29 05:43:23;;;;;;;3.07;1.73;;;13.10;99.90;;;;;;5052139;28;20440;-85
2023/08/29 05:45:53;;;;;;;2.90;2.10;;;13.10;99.90;;;;;;5052295;28;20463;-85
2023/08/29 05:48:20;;;;;;;3.70;2.40;;;13.10;99.90;;;;;;5051884;28;20475;-84
2023/08/29 05:50:49;;;;;;;3.87;2.83;;;13.10;99.90;;;;;;5052364;28;20525;-85
2023/08/29 05:53:16;;;;;;;3.67;2.33;;;13.10;99.90;;;;;;5055021;28;20490;-85
2023/08/29 05:55:43;;;;;;;3.23;2.30;;;13.20;99.90;;;;;;5056299;28;20434;-85
2023/08/29 05:58:10;;;;;;;3.50;2.50;;;13.20;99.90;;;;;;5056067;28;20834;-86
2023/08/29 06:00:37;;;;;;;2.90;2.43;;;13.20;99.90;;;;;;5056241;28;20440;-86
2023/08/29 06:03:08;;;;;;;3.00;2.17;;;13.30;99.90;;;;;;5056195;28;20432;-87
2023/08/29 06:05:36;;;;;;;3.60;2.40;;;13.30;99.90;;;;;;5056272;28;20420;-86
2023/08/29 06:08:04;;;;;;;3.00;2.03;;;13.30;99.90;;;;;;5055776;28;20939;-86
2023/08/29 06:10:31;;;;;;;3.00;1.90;;;13.20;99.90;;;;;;5055790;28;20940;-86
2023/08/29 06:12:58;;;;;;;3.67;1.70;;;13.20;99.90;;;;;;5055693;28;20455;-86
2023/08/29 06:15:25;;;;;;;3.27;2.23;;;13.30;99.90;;;;;;5055758;28;20441;-85
2023/08/29 06:17:52;;;;;;;3.00;2.10;;;13.20;99.90;;;;;;5053290;28;20444;-81
2023/08/29 06:20:21;;;;;;;3.60;2.10;;;13.20;99.90;;;;;;5034999;28;20438;-86
2023/08/29 06:22:48;;;;;;;3.13;1.80;;;13.20;99.90;;;;;;5035415;28;20974;-86
2023/08/29 06:25:15;;;;;;;3.30;2.23;;;13.30;99.90;;;;;;5035773;28;20438;-86
2023/08/29 06:27:42;;;;;;;3.00;2.00;;;13.20;99.90;;;;;;5046813;28;20436;-86
2023/08/29 06:30:12;;;;;;;4.03;1.80;;;13.30;99.90;;;;;;5054575;28;20842;-85
2023/08/29 06:32:40;;;;;;;2.80;1.60;;;13.30;99.90;;;;;;5055507;28;20433;-86
2023/08/29 06:35:09;;;;;;;3.43;1.80;;;13.30;99.90;;;;;;5055054;28;20448;-86
2023/08/29 06:37:37;;;;;;;2.83;1.70;;;13.40;99.90;;;;;;5055660;28;20436;-86
2023/08/29 06:40:05;;;;;;;3.13;1.67;;;13.40;99.90;;;;;;5056238;28;20444;-86
2023/08/29 06:42:32;;;;;;;2.60;1.87;;;13.40;99.90;;;;;;5064261;28;20441;-86
2023/08/29 06:45:00;;;;;;;2.80;1.43;;;13.40;99.90;;;;;;5055049;28;20440;-86
2023/08/29 06:47:27;;;;;;;3.17;1.90;;;13.50;99.90;;;;;;5055465;28;20444;-86
2023/08/29 06:49:55;;;;;;;3.30;1.77;;;13.50;99.90;;;;;;5055409;28;20969;-86
2023/08/29 06:52:23;;;;;;;2.97;2.00;;;13.50;99.90;;;;;;5055929;28;20440;-86
2023/08/29 06:54:57;;;;;;;2.60;1.50;;;13.60;99.90;;;;;;5055988;28;20497;-86
2023/08/29 06:57:26;;;;;;;3.70;1.57;;;13.60;99.90;;;;;;5055811;28;20447;-86
2023/08/29 06:59:53;;;;;;;2.57;1.50;;;13.70;99.90;;;;;;5055805;28;20469;-87
2023/08/29 07:02:21;;;;;;;2.30;1.33;;;13.70;99.90;;;;;;5051953;28;20535;-86
2023/08/29 07:04:48;;;;;;;2.30;1.60;;;13.80;99.90;;;;;;5054022;28;20440;-86
2023/08/29 07:07:15;;;;;;;4.10;1.60;;;13.80;99.90;;;;;;5055307;28;20437;-87
2023/08/29 07:09:45;;;;;;;2.77;1.73;;;13.90;99.90;;;;;;5055181;28;20571;-86
2023/08/29 07:12:13;;;;;;;2.50;1.30;;;13.90;99.90;;;;;;5055468;28;20437;-87
2023/08/29 07:14:41;;;;;;;3.00;1.70;;;14.00;99.90;;;;;;5055431;28;20562;-87
2023/08/29 07:17:08;;;;;;;3.67;1.50;;;14.00;99.90;;;;;;5055182;28;20429;-87
2023/08/29 07:19:35;;;;;;;2.30;1.30;;;14.10;99.90;;;;;;5054788;28;20445;-87
2023/08/29 07:22:02;;;;;;;2.50;1.60;;;14.00;99.90;;;;;;5055048;28;20529;-87
2023/08/29 07:24:29;;;;;;;2.57;1.70;;;14.00;99.90;;;;;;5055286;28;20441;-87
2023/08/29 07:26:56;;;;;;;3.37;1.50;;;14.10;99.90;;;;;;5055280;28;20511;-87
2023/08/29 07:29:24;;;;;;;2.40;1.43;;;14.10;99.80;;;;;;5055188;28;20479;-86
2023/08/29 07:31:51;;;;;;;2.87;1.53;;;14.10;99.90;;;;;;5055272;28;20442;-87
2023/08/29 07:34:19;;;;;;;2.80;1.30;;;14.10;99.90;;;;;;5054887;28;20905;-85
2023/08/29 07:36:46;;;;;;;2.70;1.13;;;14.10;99.90;;;;;;5054810;28;20520;-86
2023/08/29 07:39:14;;;;;;;3.00;1.80;;;14.10;99.90;;;;;;5054844;28;20437;-86
2023/08/29 07:41:41;;;;;;;2.37;1.23;;;14.10;99.90;;;;;;5054633;28;20442;-86
2023/08/29 07:44:08;;;;;;;3.53;1.70;;;14.20;99.90;;;;;;5054950;28;20487;-86
2023/08/29 07:46:37;;;;;;;2.60;1.63;;;14.20;99.90;;;;;;5054558;28;20920;-86
2023/08/29 07:49:10;;;;;;;2.50;1.43;;;14.30;99.90;;;;;;5054276;28;20473;-85
2023/08/29 07:51:37;;;;;;;4.03;1.40;;;14.30;99.90;;;;;;5054842;28;20429;-86
2023/08/29 07:54:05;;;;;;;2.57;1.57;;;14.40;99.90;;;;;;5054363;28;20491;-85
2023/08/29 07:56:32;;;;;;;2.30;1.20;;;14.40;99.90;;;;;;5054414;28;21049;-86
2023/08/29 07:58:59;;;;;;;2.70;1.80;;;14.50;99.90;;;;;;5054191;28;20801;-85
2023/08/29 08:01:26;;;;;;;2.80;1.27;;;14.40;99.90;;;;;;5054561;28;20460;-85
2023/08/29 08:03:54;;;;;;;2.20;1.30;;;14.50;99.90;;;;;;5054042;28;20527;-86
2023/08/29 08:06:23;;;;;;;2.90;1.60;;;14.50;99.70;;;;;;5054499;28;20838;-86
2023/08/29 08:08:50;;;;;;;2.67;1.27;;;14.60;99.50;;;;;;5054089;28;20469;-86
2023/08/29 08:11:22;;;;;;;2.57;1.30;;;14.60;99.70;;;;;;5054532;28;20776;-85
2023/08/29 08:13:50;;;;;;;2.87;1.30;;;14.60;99.00;;;;;;5054048;28;20430;-86
2023/08/29 08:16:17;;;;;;;3.13;1.57;;;14.60;99.60;;;;;;5053981;28;20452;-85
2023/08/29 08:18:44;;;;;;;2.30;1.10;;;14.70;99.90;;;;;;5054211;28;20433;-85
2023/08/29 08:21:13;;;;;;;2.60;1.57;;;14.70;98.80;;;;;;5054364;28;20457;-85
2023/08/29 08:23:40;;;;;;;2.40;1.20;;;14.70;98.10;;;;;;5054215;28;20421;-85
2023/08/29 08:26:07;;;;;;;3.03;1.13;;;14.70;98.70;;;;;;5054093;28;20437;-85
2023/08/29 08:28:36;;;;;;;2.10;1.20;;;14.70;98.40;;;;;;5053945;28;20430;-85
2023/08/29 08:31:05;;;;;;;2.10;1.00;;;14.70;98.70;;;;;;5053689;28;20437;-85
2023/08/29 08:33:32;;;;;;;3.40;1.50;;;14.70;98.90;;;;;;5054112;28;20444;-85
2023/08/29 08:35:59;;;;;;;2.43;1.40;;;14.80;99.00;;;;;;5054023;28;20483;-86
2023/08/29 08:38:27;;;;;;;2.30;1.17;;;14.90;99.20;;;;;;5053898;28;20437;-81
2023/08/29 08:40:57;;;;;;;2.70;1.33;;;14.90;98.60;;;;;;5053531;28;20429;-86
2023/08/29 08:43:30;;;;;;;2.37;1.43;;;15.00;98.70;;;;;;5053628;28;20444;-86
2023/08/29 08:45:58;;;;;;;2.67;1.50;;;15.00;99.10;;;;;;5053449;28;21004;-86
2023/08/29 08:48:28;;;;;;;3.10;1.30;;;15.10;99.10;;;;;;5053650;28;20495;-86
2023/08/29 08:50:56;;;;;;;2.43;1.20;;;15.10;98.90;;;;;;5053596;28;20500;-86
2023/08/29 08:53:24;;;;;;;2.97;1.30;;;15.10;98.20;;;;;;5053218;28;20433;-85
2023/08/29 08:55:53;;;;;;;2.40;1.33;;;15.00;98.30;;;;;;5053673;28;20433;-86
2023/08/29 08:58:21;;;;;;;2.30;1.20;;;15.00;98.00;;;;;;5053530;28;20457;-85
2023/08/29 09:00:55;;;;;;;2.20;1.00;;;15.00;97.80;;;;;;5053101;28;20437;-85
2023/08/29 09:03:22;;;;;;;2.47;1.20;;;15.00;97.60;;;;;;5053352;28;20518;-87
2023/08/29 09:05:49;;;;;;;2.17;1.27;;;15.00;97.80;;;;;;5053083;28;20433;-85
2023/08/29 09:08:17;;;;;;;2.40;1.27;;;15.00;98.00;;;;;;5053132;28;21152;-85
2023/08/29 09:10:44;;;;;;;3.40;1.30;;;14.90;98.30;;;;;;5052884;28;20985;-85
2023/08/29 09:13:17;;;;;;;2.23;1.10;;;14.90;97.90;;;;;;5053194;28;20441;-86
2023/08/29 09:15:46;;;;;;;2.73;1.40;;;14.90;98.10;;;;;;5053475;28;20447;-85
2023/08/29 09:18:14;;;;;;;3.03;1.60;;;15.00;98.20;;;;;;5052870;28;20445;-85
2023/08/29 09:20:45;;;;;;;2.27;1.13;;;15.00;98.20;;;;;;5052936;28;20539;-86
2023/08/29 09:23:22;;;;;;;2.10;1.20;;;15.00;97.90;;;;;;5053318;28;20426;-86
2023/08/29 09:25:55;;;;;;;2.50;1.10;;;15.10;98.30;;;;;;5052913;28;20460;-86
2023/08/29 09:28:27;;;;;;;2.30;1.20;;;15.10;98.40;;;;;;5052162;28;20440;-85
2023/08/29 09:30:54;;;;;;;2.43;1.23;;;15.20;98.00;;;;;;5053226;28;20461;-86
2023/08/29 09:33:22;;;;;;;2.60;1.60;;;15.20;98.20;;;;;;5053034;28;20468;-87
2023/08/29 09:35:54;;;;;;;2.90;1.03;;;15.30;98.10;;;;;;5052730;28;20483;-86
2023/08/29 09:38:22;;;;;;;2.27;1.20;;;15.40;97.30;;;;;;5052764;28;20475;-87
2023/08/29 09:40:50;;;;;;;1.97;1.10;;;15.50;97.50;;;;;;5052710;28;20438;-87
2023/08/29 09:43:18;;;;;;;2.50;1.10;;;15.60;97.60;;;;;;5052721;28;20425;-86
2023/08/29 09:45:51;;;;;;;2.10;0.90;;;15.70;98.40;;;;;;5052715;28;20935;-86
2023/08/29 09:48:18;;;;;;;2.13;0.90;;;15.80;97.60;;;;;;5052674;28;20429;-86
2023/08/29 09:50:46;;;;;;;2.40;1.10;;;15.90;97.70;;;;;;5052854;28;20568;-86
2023/08/29 09:53:16;;;;;;;3.00;1.20;;;15.90;97.40;;;;;;5052837;28;20426;-86
2023/08/29 09:55:48;;;;;;;2.33;1.00;;;15.90;97.70;;;;;;5052970;28;20513;-86
2023/08/29 09:58:17;;;;;;;3.27;0.90;;;15.90;97.00;;;;;;5052402;28;20515;-85
2023/08/29 10:00:45;;;;;;;4.83;1.43;;;16.00;97.30;;;;;;5052833;28;20825;-87
2023/08/29 10:03:13;;;;;;;5.93;2.30;;;16.10;96.90;;;;;;5052453;28;20971;-87
2023/08/29 10:05:42;;;;;;;3.80;2.30;;;16.20;96.20;;;;;;5052502;28;20441;-86
2023/08/29 10:08:18;;;;;;;4.17;2.33;;;16.40;96.70;;;;;;5052591;28;20425;-86
2023/08/29 10:10:45;;;;;;;2.00;0.80;;;16.50;95.70;;;;;;5050250;28;20472;-86
2023/08/29 10:13:12;;;;;;;2.40;0.90;;;16.60;94.80;;;;;;5052039;28;20479;-87
2023/08/29 10:15:42;;;;;;;5.27;3.20;;;16.60;94.20;;;;;;5052685;28;20792;-87
2023/08/29 10:18:11;;;;;;;5.30;3.30;;;16.70;95.30;;;;;;5052581;28;20478;-84
2023/08/29 10:20:43;;;;;;;3.47;1.87;;;16.80;94.60;;;;;;5052488;28;20441;-87
2023/08/29 10:23:13;;;;;;;3.03;1.67;;;16.90;94.90;;;;;;5052445;28;20461;-87
2023/08/29 10:25:41;;;;;;;2.10;0.90;;;17.10;94.30;;;;;;5052653;28;20919;-86
2023/08/29 10:28:11;;;;;;;1.80;0.70;;;17.20;93.70;;;;;;5052587;28;20436;-87
2023/08/29 10:30:41;;;;;;;3.73;2.23;;;17.20;93.50;;;;;;5052518;28;20468;-87
2023/08/29 10:33:08;;;;;;;4.17;2.63;;;17.30;93.30;;;;;;5052459;28;20437;-87
2023/08/29 10:35:36;;;;;;;6.20;3.23;;;17.30;92.40;;;;;;5052301;28;20464;-86
2023/08/29 10:38:10;;;;;;;2.27;0.90;;;17.20;92.00;;;;;;5053081;28;20583;-86
2023/08/29 10:40:37;;;;;;;1.93;0.80;;;17.20;92.60;;;;;;5056284;28;20429;-88
2023/08/29 10:43:16;;;;;;;6.77;4.80;;;17.10;92.40;;;;;;5055966;28;20490;-87
2023/08/29 10:45:50;;;;;;;4.50;2.80;;;17.10;92.90;;;;;;5055761;28;20429;-87
2023/08/29 10:48:18;;;;;;;6.30;3.57;;;17.20;93.90;;;;;;5055713;28;20445;-87
2023/08/29 10:51:09;;;;;;;1.90;0.70;;;17.20;92.80;;;;;;5055943;28;20903;-87
2023/08/29 10:53:39;;;;;;;2.50;0.80;;;17.20;93.20;;;;;;5056068;28;20430;-87
2023/08/29 10:56:07;;;;;;;1.80;0.70;;;17.20;92.90;;;;;;5055968;28;20459;-88
2023/08/29 10:58:36;;;;;;;1.83;0.73;;;17.10;91.50;;;;;;5055900;28;20470;-89
2023/08/29 11:01:04;;;;;;;1.80;0.80;;;17.00;92.30;;;;;;5055541;28;20442;-88
2023/08/29 11:03:45;;;;;;;1.83;0.80;;;16.90;92.50;;;;;;5055769;28;20511;-89
2023/08/29 11:06:12;;;;;;;1.80;0.60;;;16.80;93.10;;;;;;5055810;28;20422;-89
2023/08/29 11:08:41;;;;;;;2.27;0.90;;;16.70;93.10;;;;;;5055263;28;20926;-89
2023/08/29 11:11:18;;;;;;;3.83;0.80;;;16.60;93.20;;;;;;5055254;28;20469;-89
2023/08/29 11:13:56;;;;;;;2.10;1.00;;;16.50;93.10;;;;;;5061068;28;20532;-89
2023/08/29 11:16:23;;;;;;;2.00;0.60;;;16.50;93.90;;;;;;5075557;28;20432;-89
2023/08/29 11:19:06;;;;;;;1.80;0.70;;;16.50;94.60;;;;;;5067762;28;20434;-89
2023/08/29 11:21:33;;;;;;;3.60;0.77;;;16.50;94.30;;;;;;5055696;28;20499;-88
2023/08/29 11:24:05;;;;;;;1.90;0.77;;;16.50;94.20;;;;;;5055371;28;20434;-89
2023/08/29 11:26:33;;;;;;;2.20;0.70;;;16.50;94.90;;;;;;5071993;28;20851;-88
2023/08/29 11:29:01;;;;;;;1.87;0.80;;;16.50;94.40;;;;;;5075316;28;20433;-88
2023/08/29 11:31:30;;;;;;;2.70;1.40;;;16.70;95.00;;;;;;5065031;28;20473;-89
2023/08/29 11:34:00;;;;;;;2.90;0.93;;;16.80;95.00;;;;;;5054776;28;20920;-88
2023/08/29 11:36:32;;;;;;;1.80;0.70;;;16.80;94.50;;;;;;5058166;28;20434;-88
2023/08/29 11:38:59;;;;;;;2.60;0.70;;;16.80;93.90;;;;;;5054752;28;20434;-88
2023/08/29 11:41:29;;;;;;;1.90;0.60;;;16.80;93.90;;;;;;5054695;28;20437;-88
2023/08/29 11:44:01;;;;;;;1.90;0.70;;;16.80;94.10;;;;;;5062024;28;20503;-90
2023/08/29 11:46:33;;;;;;;2.00;0.97;;;16.80;94.20;;;;;;5066254;28;20432;-88
2023/08/29 11:49:01;;;;;;;1.87;0.60;;;16.80;93.50;;;;;;5054891;28;20425;-87
2023/08/29 11:51:28;;;;;;;2.10;0.70;;;16.80;93.20;;;;;;5054130;28;20477;-89
2023/08/29 11:53:55;;;;;;;1.90;0.77;;;16.80;93.70;;;;;;5054433;28;20440;-88
2023/08/29 11:56:22;;;;;;;1.90;0.60;;;16.90;94.00;;;;;;5054788;28;20795;-88
2023/08/29 11:58:51;;;;;;;2.23;0.80;;;16.80;94.10;;;;;;5054833;28;20858;-88
2023/08/29 12:01:18;;;;;;;2.10;0.80;;;16.80;93.90;;;;;;5054957;28;20532;-88
2023/08/29 12:03:45;;;;;;;1.90;0.70;;;16.80;94.30;;;;;;5054232;28;20440;-88
2023/08/29 12:06:13;;;;;;;2.00;0.80;;;16.80;94.90;;;;;;5054849;28;20457;-88
2023/08/29 12:08:42;;;;;;;1.80;0.70;;;16.90;94.90;;;;;;5054547;28;20449;-88
2023/08/29 12:11:12;;;;;;;2.00;0.80;;;16.90;94.00;;;;;;5054391;28;20873;-89
2023/08/29 12:13:41;;;;;;;1.90;0.70;;;16.90;94.40;;;;;;5054867;28;20475;-88
2023/08/29 12:16:16;;;;;;;2.40;0.90;;;16.80;93.30;;;;;;5054123;28;20425;-88
2023/08/29 12:18:44;;;;;;;1.90;0.70;;;16.80;93.90;;;;;;5054112;28;20431;-87
2023/08/29 12:21:15;;;;;;;2.00;0.80;;;16.70;94.40;;;;;;5054053;28;20441;-89
2023/08/29 12:23:43;;;;;;;3.40;0.70;;;16.60;94.90;;;;;;5054248;28;20496;-89
2023/08/29 12:26:11;;;;;;;1.90;0.73;;;16.60;95.20;;;;;;5054148;28;20433;-89
2023/08/29 12:28:39;;;;;;;1.70;0.70;;;16.50;95.30;;;;;;5054147;28;20437;-90
2023/08/29 12:31:07;;;;;;;2.40;1.00;;;16.40;95.20;;;;;;5053971;28;20831;-90
2023/08/29 12:33:35;;;;;;;2.57;1.13;;;16.40;95.90;;;;;;5054065;28;20440;-89
2023/08/29 12:36:03;;;;;;;2.10;0.97;;;16.30;95.90;;;;;;5054034;28;20516;-91
2023/08/29 12:38:31;;;;;;;2.10;0.93;;;16.30;95.80;;;;;;5054028;28;20437;-90
2023/08/29 12:40:58;;;;;;;2.00;0.60;;;16.30;96.10;;;;;;5053926;28;20445;-90
2023/08/29 12:43:25;;;;;;;2.10;0.60;;;16.30;96.00;;;;;;5053584;28;20521;-90
2023/08/29 12:45:52;;;;;;;2.07;0.97;;;16.30;96.00;;;;;;5053523;28;20430;-90
2023/08/29 12:48:20;;;;;;;1.83;0.67;;;16.30;96.30;;;;;;5053400;28;20451;-89
2023/08/29 12:50:49;;;;;;;1.80;0.70;;;16.20;96.10;;;;;;5053665;28;20505;-89
2023/08/29 12:53:18;;;;;;;1.70;0.70;;;16.20;96.20;;;;;;5053395;28;20490;-89
2023/08/29 12:55:45;;;;;;;2.00;0.80;;;16.20;96.30;;;;;;5053695;28;20788;-90